Holloway, Minnesota
Current Conditions -  °F | °C
As of 5:34 PM on Thursday 18 Dec 2014 (Local Time) from KAQP Reporting Station
Overcast Overcast  
Wind Chill: 15°   Ceiling: 6000
Heat Index: 21°   Visibility: 10mi
Dew Point: 18°   Wind: 5mph
Humidity: 86%   Direction: 130°SE
Pressure: 30.22"   Gusts: NA
Location:  45.25°N, 95.91°W
Report Text: KAQP 182334Z AUTO 13004KT 10SM OVC060 M06/M08 A3022 RMK AO2
Loading
Personal Weather Stations






























Interactive Weather Map New forecast layout! Learn more

10-Day Weather Forecast

Advertisements
Track Severe Weather on mobile